Terminal Aerodrome Forecast
Issued by NWS

Home | Current Version | Previous Version | Text Only | Print | Product List | Glossary Off
Versions: 1 2 3 4 5 6 7 8 9 10 11 12 13 14 15 16 17

000
FTUS42 KMHX 242333
TAFOAJ
TAF
KOAJ 242333Z 2500/2524 13005KT P6SM SCT250
     FM250200 07005KT P6SM OVC100
     FM250400 07005KT P6SM OVC050
     FM250700 07005KT P6SM OVC025
     FM251600 08005KT P6SM OVC050
     FM251900 13005KT P6SM OVC050
      AMD LTD TO CLD VIS AND WIND=

USA.gov is the U.S. government's official web portal to all federal, state and local government web resources and services.